createdAt,value
2022-12-06T00:01:14.517Z,101569.63
2022-12-06T00:03:42.266Z,101561.63
2022-12-06T00:06:14.236Z,101565.47
2022-12-06T00:08:41.868Z,101561.88
2022-12-06T00:11:19.296Z,101561.88
2022-12-06T00:13:47.010Z,101562.94
2022-12-06T00:16:15.590Z,101557.75
2022-12-06T00:18:43.179Z,101556.84
2022-12-06T00:21:11.409Z,101557.47
2022-12-06T00:23:39.376Z,101561.06
2022-12-06T00:26:07.084Z,101553.31
2022-12-06T00:28:34.205Z,101550.69
2022-12-06T00:31:02.112Z,101551.69
2022-12-06T00:33:29.472Z,101558.81
2022-12-06T00:36:00.957Z,101544.66
2022-12-06T00:38:29.184Z,101550.91
2022-12-06T00:41:04.488Z,101543.09
2022-12-06T00:43:31.889Z,101537.97
2022-12-06T00:45:59.076Z,101536.25
2022-12-06T00:48:26.152Z,101518.78
2022-12-06T00:50:53.243Z,101528.19
2022-12-06T00:53:20.673Z,101523.06
2022-12-06T00:55:47.848Z,101521.50
2022-12-06T00:58:15.000Z,101521.53
2022-12-06T01:00:42.292Z,101523.38
2022-12-06T01:03:09.593Z,101514.53
2022-12-06T01:05:45.648Z,101520.41
2022-12-06T01:08:13.384Z,101510.19
2022-12-06T01:10:40.946Z,101518.78
2022-12-06T01:13:08.292Z,101509.22
2022-12-06T01:15:38.542Z,101515.13
2022-12-06T01:18:05.727Z,101513.25
2022-12-06T01:20:32.691Z,101515.03
2022-12-06T01:23:02.033Z,101513.13
2022-12-06T01:25:35.620Z,101507.00
2022-12-06T01:28:03.342Z,101500.72
2022-12-06T01:30:32.880Z,101501.63
2022-12-06T01:33:01.148Z,101503.25
2022-12-06T01:35:28.067Z,101503.13
2022-12-06T01:37:55.008Z,101507.53
2022-12-06T01:40:21.908Z,101513.66
2022-12-06T01:42:48.936Z,101509.38
2022-12-06T01:45:15.877Z,101503.88
2022-12-06T01:47:44.124Z,101503.00
2022-12-06T01:50:11.012Z,101500.28
2022-12-06T01:52:58.143Z,101496.78
2022-12-06T01:55:27.453Z,101496.72
2022-12-06T01:57:57.547Z,101495.03
2022-12-06T02:00:24.436Z,101495.88
2022-12-06T02:02:51.488Z,101491.47
2022-12-06T02:05:18.472Z,101483.78
2022-12-06T02:07:46.621Z,101484.53
2022-12-06T02:10:13.807Z,101486.34
2022-12-06T02:12:40.747Z,101488.94
2022-12-06T02:15:07.991Z,101494.22
2022-12-06T02:17:41.329Z,101500.94
2022-12-06T02:20:26.973Z,101490.47
2022-12-06T02:22:56.830Z,101490.25
2022-12-06T02:25:34.349Z,101495.56
2022-12-06T02:28:07.930Z,101487.75
2022-12-06T02:30:47.788Z,101487.78
2022-12-06T02:33:21.944Z,101489.50
2022-12-06T02:35:53.762Z,101490.47
2022-12-06T02:38:29.453Z,101485.94
2022-12-06T02:41:02.044Z,101484.94
2022-12-06T02:43:33.090Z,101482.53
2022-12-06T02:46:02.715Z,101479.69
2022-12-06T02:48:31.837Z,101475.38
2022-12-06T02:51:06.154Z,101488.16
2022-12-06T02:53:34.607Z,101474.88
2022-12-06T02:56:01.933Z,101481.50
2022-12-06T02:58:28.883Z,101479.59
2022-12-06T03:01:03.050Z,101475.44
2022-12-06T03:03:41.082Z,101470.91
2022-12-06T03:06:12.737Z,101474.44
2022-12-06T03:08:55.821Z,101469.31
2022-12-06T03:11:28.735Z,101470.03
2022-12-06T03:14:19.145Z,101463.22
2022-12-06T03:16:59.182Z,101459.75
2022-12-06T03:19:35.233Z,101467.63
2022-12-06T03:22:25.440Z,101466.88
2022-12-06T03:25:05.197Z,101459.81
2022-12-06T03:27:39.664Z,101467.38
2022-12-06T03:30:14.059Z,101458.63
2022-12-06T03:32:45.577Z,101451.75
2022-12-06T03:35:21.719Z,101452.72
2022-12-06T03:38:06.019Z,101448.31
2022-12-06T03:41:18.789Z,101436.88
2022-12-06T03:44:03.351Z,101437.75
2022-12-06T03:46:45.075Z,101438.72
2022-12-06T03:49:23.583Z,101430.09
2022-12-06T03:54:54.332Z,101431.66
2022-12-06T03:57:29.028Z,101432.50
2022-12-06T04:00:21.105Z,101427.22
2022-12-06T04:02:48.100Z,101416.88
2022-12-06T04:05:15.042Z,101424.75
2022-12-06T04:07:45.278Z,101415.22
2022-12-06T04:10:12.367Z,101408.19
2022-12-06T04:12:57.817Z,101405.56
2022-12-06T04:15:24.855Z,101401.00
2022-12-06T04:18:10.451Z,101398.47
2022-12-06T04:21:11.418Z,101409.69
2022-12-06T04:23:39.990Z,101410.34
2022-12-06T04:26:08.230Z,101414.97
2022-12-06T04:28:53.617Z,101404.56
2022-12-06T04:31:39.475Z,101408.91
2022-12-06T04:34:25.601Z,101405.59
2022-12-06T04:37:11.604Z,101398.59
2022-12-06T04:39:38.568Z,101401.06
2022-12-06T04:42:24.180Z,101400.44
2022-12-06T04:44:51.671Z,101398.66
2022-12-06T04:47:18.537Z,101398.66
2022-12-06T04:49:45.456Z,101405.59
2022-12-06T04:52:12.611Z,101405.63
2022-12-06T04:54:39.698Z,101408.25
2022-12-06T04:57:11.432Z,101406.44
2022-12-06T05:02:24.356Z,101416.72
2022-12-06T05:04:51.290Z,101419.41
2022-12-06T05:07:18.210Z,101419.53
2022-12-06T05:09:45.119Z,101415.03
2022-12-06T05:12:12.036Z,101414.97
2022-12-06T05:14:39.027Z,101423.53
2022-12-06T05:17:08.975Z,101416.59
2022-12-06T05:19:35.949Z,101416.47
2022-12-06T05:22:02.939Z,101418.44
2022-12-06T05:24:30.005Z,101410.81
2022-12-06T05:26:58.123Z,101422.06
2022-12-06T05:29:25.111Z,101417.69
2022-12-06T05:31:52.031Z,101417.66
2022-12-06T05:34:19.153Z,101412.34
2022-12-06T05:36:46.242Z,101417.38
2022-12-06T05:39:13.430Z,101421.59
2022-12-06T05:41:40.421Z,101427.72
2022-12-06T05:44:07.673Z,101430.94
2022-12-06T05:46:34.745Z,101432.53
2022-12-06T05:49:01.750Z,101429.72
2022-12-06T05:51:28.579Z,101425.59
2022-12-06T05:53:55.476Z,101428.91
2022-12-06T05:56:22.332Z,101435.81
2022-12-06T05:58:49.318Z,101440.91
2022-12-06T06:01:18.001Z,101436.56
2022-12-06T06:03:47.770Z,101434.78
2022-12-06T06:06:15.322Z,101441.00
2022-12-06T06:08:42.300Z,101441.75
2022-12-06T06:11:09.440Z,101440.97
2022-12-06T06:13:36.492Z,101448.84
2022-12-06T06:16:03.538Z,101451.56
2022-12-06T06:18:30.761Z,101461.06
2022-12-06T06:20:59.302Z,101453.34
2022-12-06T06:23:26.982Z,101456.69
2022-12-06T06:25:54.536Z,101450.78
2022-12-06T06:28:22.490Z,101458.59
2022-12-06T06:30:49.897Z,101454.22
2022-12-06T06:33:17.152Z,101461.19
2022-12-06T06:35:47.272Z,101460.38
2022-12-06T06:38:14.380Z,101453.34
2022-12-06T06:40:41.420Z,101455.97
2022-12-06T06:43:20.957Z,101449.00
2022-12-06T06:45:55.423Z,101453.38
2022-12-06T06:48:23.404Z,101448.72
2022-12-06T06:50:56.760Z,101453.00
2022-12-06T06:53:25.364Z,101465.22
2022-12-06T06:55:54.162Z,101467.38
2022-12-06T06:58:21.362Z,101458.97
2022-12-06T07:00:52.912Z,101465.22
2022-12-06T07:03:20.919Z,101462.69
2022-12-06T07:05:56.188Z,101462.78
2022-12-06T07:08:23.697Z,101465.59
2022-12-06T07:10:50.866Z,101464.75
2022-12-06T07:13:22.243Z,101464.13
2022-12-06T07:15:49.426Z,101465.56
2022-12-06T07:18:19.594Z,101458.63
2022-12-06T07:20:47.239Z,101453.34
2022-12-06T07:23:14.392Z,101456.13
2022-12-06T07:25:41.664Z,101452.78
2022-12-06T07:28:08.696Z,101460.69
2022-12-06T07:30:36.164Z,101461.53
2022-12-06T07:33:03.609Z,101457.19
2022-12-06T07:35:55.465Z,101450.44
2022-12-06T07:38:27.815Z,101457.38
2022-12-06T07:41:04.551Z,101461.59
2022-12-06T07:43:50.441Z,101456.53
2022-12-06T07:46:17.696Z,101457.41
2022-12-06T07:48:44.854Z,101456.41
2022-12-06T07:51:11.800Z,101462.72
2022-12-06T07:53:38.937Z,101464.53
2022-12-06T07:56:06.527Z,101456.00
2022-12-06T07:58:33.571Z,101463.09
2022-12-06T08:01:05.583Z,101465.78
2022-12-06T08:03:32.638Z,101466.63
2022-12-06T08:06:00.063Z,101463.34
2022-12-06T08:08:29.033Z,101468.59
2022-12-06T08:11:01.822Z,101460.97
2022-12-06T08:13:36.447Z,101469.59
2022-12-06T08:16:13.252Z,101464.63
2022-12-06T08:18:41.427Z,101470.78
2022-12-06T08:21:20.181Z,101474.38
2022-12-06T08:23:47.477Z,101470.09
2022-12-06T08:26:22.235Z,101468.72
2022-12-06T08:28:52.072Z,101463.84
2022-12-06T08:31:24.229Z,101470.47
2022-12-06T08:33:51.367Z,101471.75
2022-12-06T08:36:30.102Z,101478.06
2022-12-06T08:38:59.647Z,101471.16
2022-12-06T08:41:51.337Z,101474.06
2022-12-06T08:44:21.348Z,101479.34
2022-12-06T08:46:53.656Z,101476.88
2022-12-06T08:49:20.708Z,101473.91
2022-12-06T08:51:50.292Z,101481.25
2022-12-06T08:54:19.169Z,101485.06
2022-12-06T08:56:46.662Z,101489.13
2022-12-06T08:59:14.202Z,101490.81
2022-12-06T09:01:41.538Z,101492.44
2022-12-06T09:04:11.055Z,101494.22
2022-12-06T09:06:39.257Z,101496.53
2022-12-06T09:09:09.832Z,101499.84
2022-12-06T09:11:39.953Z,101494.00
2022-12-06T09:14:21.175Z,101501.47
2022-12-06T09:16:56.098Z,101494.97
2022-12-06T09:19:23.992Z,101497.97
2022-12-06T09:21:56.093Z,101500.97
2022-12-06T09:24:23.544Z,101500.78
2022-12-06T09:26:50.604Z,101498.38
2022-12-06T09:29:18.274Z,101494.75
2022-12-06T09:31:45.848Z,101501.41
2022-12-06T09:34:13.495Z,101504.00
2022-12-06T09:36:45.671Z,101505.66
2022-12-06T09:39:19.067Z,101507.84
2022-12-06T09:41:58.362Z,101510.47
2022-12-06T09:44:26.770Z,101510.59
2022-12-06T09:46:59.908Z,101522.78
2022-12-06T09:49:44.410Z,101517.00
2022-12-06T09:52:26.702Z,101525.91
2022-12-06T09:55:00.305Z,101524.19
2022-12-06T09:57:36.877Z,101524.31
2022-12-06T10:00:11.822Z,101523.53
2022-12-06T10:02:45.824Z,101524.50
2022-12-06T10:05:21.812Z,101526.28
2022-12-06T10:08:09.663Z,101522.78
2022-12-06T10:11:08.437Z,101515.78
2022-12-06T10:14:03.752Z,101517.53
2022-12-06T10:16:37.285Z,101516.59
2022-12-06T10:19:20.004Z,101512.97
2022-12-06T10:21:49.819Z,101508.38
2022-12-06T10:24:25.668Z,101515.13
2022-12-06T10:26:57.233Z,101508.97
2022-12-06T10:29:38.188Z,101506.22
2022-12-06T10:32:21.525Z,101508.09
2022-12-06T10:34:59.589Z,101509.88
2022-12-06T10:37:36.360Z,101508.31
2022-12-06T10:40:04.369Z,101502.78
2022-12-06T10:42:33.528Z,101500.13
2022-12-06T10:45:42.836Z,101496.56
2022-12-06T10:48:36.318Z,101493.16
2022-12-06T10:51:10.080Z,101490.78
2022-12-06T10:53:47.433Z,101480.28
2022-12-06T10:56:21.033Z,101482.19
2022-12-06T10:58:54.027Z,101485.91
2022-12-06T11:01:28.734Z,101484.13
2022-12-06T11:04:08.608Z,101470.09
2022-12-06T11:06:39.231Z,101473.56
2022-12-06T11:09:27.030Z,101463.00
2022-12-06T11:11:57.168Z,101467.31
2022-12-06T11:14:31.971Z,101466.41
2022-12-06T11:17:07.330Z,101462.94
2022-12-06T11:19:36.781Z,101459.47
2022-12-06T11:22:22.727Z,101446.25
2022-12-06T11:24:52.562Z,101440.03
2022-12-06T11:27:38.375Z,101442.59
2022-12-06T11:30:18.476Z,101440.06
2022-12-06T11:32:51.025Z,101435.69
2022-12-06T11:35:25.915Z,101435.75
2022-12-06T11:37:55.502Z,101426.16
2022-12-06T11:40:34.141Z,101422.50
2022-12-06T11:43:05.529Z,101425.22
2022-12-06T11:45:33.918Z,101419.06
2022-12-06T11:48:20.926Z,101424.25
2022-12-06T11:50:49.236Z,101424.34
2022-12-06T11:53:35.774Z,101427.88
2022-12-06T11:56:15.208Z,101422.63
2022-12-06T11:58:49.643Z,101422.69
2022-12-06T12:01:16.902Z,101416.44
2022-12-06T12:03:45.293Z,101411.22
2022-12-06T12:06:26.656Z,101411.19
2022-12-06T12:09:25.114Z,101407.59
2022-12-06T12:12:01.665Z,101406.78
2022-12-06T12:14:34.197Z,101406.78
2022-12-06T12:17:02.622Z,101408.63
2022-12-06T12:19:34.943Z,101408.56
2022-12-06T12:22:14.842Z,101397.06
2022-12-06T12:27:40.764Z,101403.34
2022-12-06T12:30:20.168Z,101398.06
2022-12-06T12:32:48.047Z,101400.72
2022-12-06T12:35:21.666Z,101391.06
2022-12-06T12:37:54.172Z,101393.69
2022-12-06T12:40:29.654Z,101389.25
2022-12-06T12:42:58.538Z,101385.69
2022-12-06T12:45:30.399Z,101383.00
2022-12-06T12:48:04.760Z,101383.00
2022-12-06T12:50:35.054Z,101383.81
2022-12-06T12:53:05.016Z,101379.50
2022-12-06T12:55:32.974Z,101369.81
2022-12-06T12:58:01.230Z,101368.81
2022-12-06T13:00:32.958Z,101368.72
2022-12-06T13:03:50.137Z,101361.59
2022-12-06T13:06:35.815Z,101358.63
2022-12-06T13:09:04.252Z,101360.63
2022-12-06T13:11:42.061Z,101352.28
2022-12-06T13:14:16.287Z,101354.50
2022-12-06T13:16:52.957Z,101345.22
2022-12-06T13:19:21.581Z,101344.44
2022-12-06T13:21:55.130Z,101342.59
2022-12-06T13:24:31.709Z,101338.28
2022-12-06T13:27:06.316Z,101342.66
2022-12-06T13:29:38.720Z,101340.47
2022-12-06T13:32:08.562Z,101340.63
2022-12-06T13:34:38.010Z,101339.72
2022-12-06T13:37:25.204Z,101336.06
2022-12-06T13:39:52.545Z,101333.72
2022-12-06T13:42:42.744Z,101333.94
2022-12-06T13:45:35.228Z,101326.75
2022-12-06T13:48:02.343Z,101338.44
2022-12-06T13:50:32.204Z,101333.84
2022-12-06T13:53:02.827Z,101344.88
2022-12-06T13:55:32.419Z,101344.94
2022-12-06T13:57:59.550Z,101344.84
2022-12-06T14:00:43.125Z,101346.88
2022-12-06T14:03:22.229Z,101347.25
2022-12-06T14:06:12.146Z,101349.78
2022-12-06T14:09:09.551Z,101350.75
2022-12-06T14:11:43.085Z,101346.88
2022-12-06T14:14:18.641Z,101335.66
2022-12-06T14:16:51.589Z,101354.34
2022-12-06T14:19:28.482Z,101352.75
2022-12-06T14:22:11.642Z,101357.47
2022-12-06T14:24:47.276Z,101353.75
2022-12-06T14:27:17.216Z,101348.47
2022-12-06T14:30:03.923Z,101350.25
2022-12-06T14:32:47.509Z,101350.06
2022-12-06T14:35:38.849Z,101342.94
2022-12-06T14:38:24.060Z,101338.59
2022-12-06T14:41:13.318Z,101347.03
2022-12-06T14:43:45.112Z,101349.53
2022-12-06T14:46:16.370Z,101345.94
2022-12-06T14:49:16.828Z,101341.56
2022-12-06T14:51:51.820Z,101352.00
2022-12-06T14:54:33.786Z,101358.28
2022-12-06T14:57:15.992Z,101355.78
2022-12-06T15:00:14.426Z,101360.19
2022-12-06T15:02:33.871Z,101360.50
2022-12-06T15:05:09.689Z,101363.06
2022-12-06T15:07:50.956Z,101363.53
2022-12-06T15:10:28.794Z,101368.06
2022-12-06T15:12:56.233Z,101365.59
2022-12-06T15:15:57.391Z,101367.38
2022-12-06T15:18:32.938Z,101368.28
2022-12-06T15:21:06.635Z,101367.41
2022-12-06T15:23:39.568Z,101368.25
2022-12-06T15:26:11.505Z,101369.13
2022-12-06T15:28:46.708Z,101376.06
2022-12-06T15:31:30.251Z,101376.88
2022-12-06T15:34:11.128Z,101373.38
2022-12-06T15:36:43.456Z,101371.50
2022-12-06T15:39:16.165Z,101376.69
2022-12-06T15:41:56.119Z,101378.19
2022-12-06T15:44:27.125Z,101382.59
2022-12-06T15:46:54.523Z,101388.28
2022-12-06T15:49:23.271Z,101383.16
2022-12-06T15:51:50.385Z,101378.75
2022-12-06T15:54:26.019Z,101387.25
2022-12-06T15:56:53.472Z,101396.00
2022-12-06T15:59:26.923Z,101396.97
2022-12-06T16:01:54.224Z,101400.41
2022-12-06T16:04:22.594Z,101401.91
2022-12-06T16:06:59.797Z,101395.88
2022-12-06T16:12:24.018Z,101409.00
2022-12-06T16:15:00.664Z,101405.13
2022-12-06T16:17:33.639Z,101405.34
2022-12-06T16:20:25.157Z,101401.00
2022-12-06T16:26:01.117Z,101411.34
2022-12-06T16:28:28.236Z,101408.81
2022-12-06T16:30:55.484Z,101408.84
2022-12-06T16:33:42.228Z,101402.75
2022-12-06T16:36:15.656Z,101407.97
2022-12-06T16:38:45.206Z,101415.81
2022-12-06T16:41:24.549Z,101419.19
2022-12-06T16:43:55.336Z,101413.91
2022-12-06T16:46:33.099Z,101416.25
2022-12-06T16:49:22.680Z,101423.28
2022-12-06T16:52:02.701Z,101419.75
2022-12-06T16:54:33.399Z,101420.53
2022-12-06T16:57:05.319Z,101418.59
2022-12-06T16:59:35.038Z,101411.59
2022-12-06T17:02:02.062Z,101407.25
2022-12-06T17:04:31.770Z,101406.53
2022-12-06T17:07:01.378Z,101405.59
2022-12-06T17:09:33.939Z,101402.03
2022-12-06T17:12:04.670Z,101405.38
2022-12-06T17:14:31.789Z,101410.44
2022-12-06T17:17:04.055Z,101407.97
2022-12-06T17:19:35.198Z,101416.72
2022-12-06T17:22:02.499Z,101412.09
2022-12-06T17:24:29.513Z,101422.41
2022-12-06T17:26:56.549Z,101425.13
2022-12-06T17:29:23.942Z,101416.38
2022-12-06T17:31:53.795Z,101422.72
2022-12-06T17:34:22.212Z,101423.53
2022-12-06T17:36:49.621Z,101427.78
2022-12-06T17:39:18.262Z,101426.75
2022-12-06T17:42:03.876Z,101426.91
2022-12-06T17:44:31.076Z,101424.09
2022-12-06T17:46:58.014Z,101427.44
2022-12-06T17:49:26.627Z,101424.84
2022-12-06T17:51:54.064Z,101426.75
2022-12-06T17:54:21.999Z,101430.75
2022-12-06T17:56:52.935Z,101436.78
2022-12-06T17:59:24.273Z,101431.63
2022-12-06T18:02:14.137Z,101435.94
2022-12-06T18:04:39.560Z,101436.13
2022-12-06T18:07:09.427Z,101438.53
2022-12-06T18:09:36.637Z,101445.00
2022-12-06T18:12:03.838Z,101446.16
2022-12-06T18:14:31.017Z,101450.44
2022-12-06T18:17:00.931Z,101447.13
2022-12-06T18:19:28.151Z,101442.78
2022-12-06T18:21:55.302Z,101450.69
2022-12-06T18:24:24.627Z,101453.91
2022-12-06T18:26:54.823Z,101447.22
2022-12-06T18:29:22.988Z,101448.28
2022-12-06T18:31:50.569Z,101454.75
2022-12-06T18:34:18.089Z,101447.03
2022-12-06T18:36:45.328Z,101446.22
2022-12-06T18:39:15.310Z,101447.09
2022-12-06T18:41:45.766Z,101447.22
2022-12-06T18:44:13.220Z,101446.19
2022-12-06T18:46:42.776Z,101439.28
2022-12-06T18:49:11.018Z,101449.78
2022-12-06T18:51:39.068Z,101455.97
2022-12-06T18:54:09.212Z,101458.59
2022-12-06T18:56:37.559Z,101455.00
2022-12-06T18:59:06.554Z,101454.13
2022-12-06T19:01:47.158Z,101454.97
2022-12-06T19:04:19.508Z,101459.31
2022-12-06T19:06:46.792Z,101467.28
2022-12-06T19:09:15.164Z,101458.59
2022-12-06T19:11:43.592Z,101463.63
2022-12-06T19:14:10.992Z,101463.72
2022-12-06T19:16:39.846Z,101469.81
2022-12-06T19:19:14.283Z,101460.16
2022-12-06T19:21:44.227Z,101458.44
2022-12-06T19:24:12.104Z,101465.34
2022-12-06T19:26:39.312Z,101456.63
2022-12-06T19:29:06.358Z,101458.34
2022-12-06T19:31:33.832Z,101454.81
2022-12-06T19:34:01.394Z,101460.00
2022-12-06T19:36:29.898Z,101454.72
2022-12-06T19:39:01.153Z,101453.81
2022-12-06T19:41:28.262Z,101453.69
2022-12-06T19:44:14.037Z,101453.66
2022-12-06T19:46:47.796Z,101449.25
2022-12-06T19:49:27.079Z,101455.28
2022-12-06T19:55:45.553Z,101451.66
2022-12-06T19:58:56.510Z,101461.97
2022-12-06T20:12:14.211Z,101460.91
2022-12-06T20:22:08.687Z,101463.25
2022-12-06T20:25:23.214Z,101463.25
2022-12-06T20:35:05.061Z,101463.75
2022-12-06T20:40:57.152Z,101475.88
2022-12-06T20:43:28.144Z,101471.47
2022-12-06T20:46:25.780Z,101469.69
2022-12-06T20:49:26.847Z,101475.81
2022-12-06T21:07:57.001Z,101474.59
2022-12-06T21:14:37.779Z,101469.94
2022-12-06T21:17:47.969Z,101464.63
2022-12-06T21:23:54.845Z,101466.16
2022-12-06T21:30:24.070Z,101478.19
2022-12-06T21:33:35.411Z,101476.41
2022-12-06T21:36:58.148Z,101478.06
2022-12-06T21:39:40.440Z,101471.84
2022-12-06T21:42:35.203Z,101472.84
2022-12-06T21:46:00.861Z,101477.88
2022-12-06T21:49:31.082Z,101484.84
2022-12-06T21:52:59.662Z,101483.84
2022-12-06T22:00:03.005Z,101483.72
2022-12-06T22:03:38.940Z,101487.09
2022-12-06T22:07:03.508Z,101479.13
2022-12-06T22:12:44.658Z,101478.81
2022-12-06T22:18:47.734Z,101484.78
2022-12-06T22:21:35.605Z,101478.69
2022-12-06T22:34:53.690Z,101483.75
2022-12-06T22:48:29.390Z,101474.59
2022-12-06T22:52:22.999Z,101475.38
2022-12-06T22:58:00.994Z,101480.34
2022-12-06T23:00:34.335Z,101479.41
2022-12-06T23:10:04.284Z,101481.03
2022-12-06T23:16:38.960Z,101467.16
2022-12-06T23:19:41.590Z,101467.00
2022-12-06T23:25:42.431Z,101465.16
2022-12-06T23:28:10.565Z,101455.44
2022-12-06T23:30:53.718Z,101457.94
2022-12-06T23:33:32.444Z,101453.53
2022-12-06T23:48:40.414Z,101436.69
2022-12-06T23:55:09.572Z,101429.53
